Time;durP1;ratioP1;P1;durP2;ratioP2;P2;SDS_P1;SDS_P2;PMS_P1;PMS_P2;Temp;Humidity;BMP_temperature;BMP_pressure;BME280_temperature;BME280_humidity;BME280_pressure;Samples;Min_cycle;Max_cycle;Signal;HPM_P1;HPM_P2
2022/07/01 00:01:36;;;;;;;10.43;9.18;;;15.10;99.90;;;;;;5094140;28;20024;-67
2022/07/01 00:04:01;;;;;;;11.65;9.57;;;15.10;99.90;;;;;;5093929;28;20130;-67
2022/07/01 00:06:27;;;;;;;11.05;9.80;;;15.10;99.90;;;;;;5093915;28;20110;-66
2022/07/01 00:08:53;;;;;;;9.85;8.77;;;15.00;99.90;;;;;;5093862;28;20024;-66
2022/07/01 00:11:18;;;;;;;12.23;9.40;;;15.00;99.90;;;;;;5093900;28;20058;-67
2022/07/01 00:13:44;;;;;;;11.85;10.70;;;15.10;99.90;;;;;;5092444;28;20035;-67
2022/07/01 00:16:09;;;;;;;14.82;10.30;;;15.00;99.90;;;;;;5093712;28;20497;-67
2022/07/01 00:18:35;;;;;;;11.65;10.07;;;15.00;99.90;;;;;;5093628;28;20043;-67
2022/07/01 00:21:01;;;;;;;13.50;11.77;;;15.00;99.90;;;;;;5092773;28;20055;-67
2022/07/01 00:23:27;;;;;;;14.80;11.50;;;15.00;99.90;;;;;;5092638;28;20024;-67
2022/07/01 00:25:53;;;;;;;16.27;12.40;;;15.00;99.90;;;;;;5093635;28;20026;-67
2022/07/01 00:28:18;;;;;;;16.42;12.88;;;15.00;99.90;;;;;;5093842;28;20032;-67
2022/07/01 00:30:44;;;;;;;15.27;12.80;;;15.00;99.90;;;;;;5093532;28;20043;-67
2022/07/01 00:33:09;;;;;;;17.65;13.48;;;15.00;99.90;;;;;;5093490;28;20085;-67
2022/07/01 00:35:35;;;;;;;20.38;13.82;;;15.00;99.90;;;;;;5093440;28;20044;-66
2022/07/01 00:38:00;;;;;;;17.95;14.35;;;15.00;99.90;;;;;;5093395;28;20112;-66
2022/07/01 00:40:26;;;;;;;23.02;15.57;;;15.00;99.90;;;;;;5093638;28;20046;-66
2022/07/01 00:42:52;;;;;;;19.80;15.93;;;15.00;99.90;;;;;;5093461;28;20020;-67
2022/07/01 00:45:17;;;;;;;23.77;16.08;;;15.00;99.90;;;;;;5093414;28;20020;-67
2022/07/01 00:47:44;;;;;;;22.70;16.65;;;15.00;99.90;;;;;;5093197;28;20052;-67
2022/07/01 00:50:12;;;;;;;18.67;16.00;;;15.00;99.90;;;;;;5092038;28;20020;-67
2022/07/01 00:52:39;;;;;;;25.50;16.40;;;15.00;99.90;;;;;;5093505;28;20441;-67
2022/07/01 00:55:07;;;;;;;22.67;16.88;;;15.10;99.90;;;;;;5093263;28;20028;-67
2022/07/01 00:57:35;;;;;;;22.52;16.73;;;15.00;99.90;;;;;;5093180;28;20130;-67
2022/07/01 01:00:04;;;;;;;22.90;18.45;;;15.00;99.90;;;;;;5093149;28;20028;-66
2022/07/01 01:02:30;;;;;;;22.95;18.25;;;15.00;99.90;;;;;;5093006;28;20024;-67
2022/07/01 01:04:56;;;;;;;24.63;18.27;;;15.00;99.90;;;;;;5093093;28;20017;-66
2022/07/01 01:07:22;;;;;;;23.00;19.38;;;15.10;99.90;;;;;;5093172;28;20474;-67
2022/07/01 01:09:47;;;;;;;25.23;19.50;;;15.10;99.90;;;;;;5093199;28;20020;-67
2022/07/01 01:12:14;;;;;;;28.45;21.30;;;15.00;99.90;;;;;;5093029;28;20028;-67
2022/07/01 01:14:49;;;;;;;24.35;20.25;;;15.00;99.90;;;;;;5093041;28;20028;-67
2022/07/01 01:17:16;;;;;;;33.42;21.25;;;15.00;99.90;;;;;;5093175;28;20039;-66
2022/07/01 01:19:42;;;;;;;30.15;20.95;;;15.10;99.90;;;;;;5093023;28;20113;-66
2022/07/01 01:22:09;;;;;;;27.88;22.05;;;15.10;99.90;;;;;;5092963;28;20016;-66
2022/07/01 01:24:36;;;;;;;30.75;22.90;;;15.10;99.90;;;;;;5092917;28;20136;-67
2022/07/01 01:27:04;;;;;;;29.38;22.30;;;15.10;99.90;;;;;;5092037;28;20500;-67
2022/07/01 01:29:29;;;;;;;27.73;22.17;;;15.10;99.90;;;;;;5093135;28;20103;-67
2022/07/01 01:31:55;;;;;;;26.67;22.70;;;15.10;99.90;;;;;;5093119;28;20568;-67
2022/07/01 01:34:20;;;;;;;27.80;23.27;;;15.10;99.90;;;;;;5092918;28;20047;-67
2022/07/01 01:36:46;;;;;;;27.92;23.15;;;15.10;99.90;;;;;;5093006;28;20024;-66
2022/07/01 01:39:18;;;;;;;28.90;22.70;;;15.00;99.90;;;;;;5092835;28;20487;-67
2022/07/01 01:41:44;;;;;;;26.48;21.95;;;15.10;99.90;;;;;;5093046;28;20386;-68
2022/07/01 01:44:10;;;;;;;26.52;22.17;;;15.00;99.90;;;;;;5092786;28;20024;-68
2022/07/01 01:46:37;;;;;;;30.20;22.17;;;15.00;99.90;;;;;;5092760;28;20036;-67
2022/07/01 01:49:03;;;;;;;26.65;20.33;;;15.00;99.90;;;;;;5093021;28;20058;-67
2022/07/01 01:51:29;;;;;;;24.02;19.38;;;15.10;99.90;;;;;;5092779;28;20542;-67
2022/07/01 01:53:55;;;;;;;25.92;21.02;;;15.00;99.90;;;;;;5091490;28;20066;-67
2022/07/01 01:56:22;;;;;;;26.13;20.92;;;15.00;99.90;;;;;;5096616;28;20024;-67
2022/07/01 01:58:49;;;;;;;22.55;19.25;;;15.00;99.90;;;;;;5096442;28;20581;-67
2022/07/01 02:01:16;;;;;;;25.02;19.63;;;15.10;99.90;;;;;;5096270;28;20026;-68
2022/07/01 02:03:43;;;;;;;20.73;17.25;;;15.10;99.90;;;;;;5094950;28;20066;-66
2022/07/01 02:06:11;;;;;;;22.35;17.02;;;15.10;99.90;;;;;;5096116;28;20054;-67
2022/07/01 02:08:37;;;;;;;21.45;16.88;;;15.00;99.90;;;;;;5096263;28;20031;-66
2022/07/01 02:11:03;;;;;;;22.17;17.42;;;15.00;99.90;;;;;;5096268;28;20027;-66
2022/07/01 02:13:29;;;;;;;21.60;17.40;;;15.00;99.90;;;;;;5096117;28;20024;-66
2022/07/01 02:15:56;;;;;;;27.30;18.58;;;15.00;99.90;;;;;;5096174;28;20478;-66
2022/07/01 02:18:22;;;;;;;21.20;17.73;;;15.00;99.90;;;;;;5096249;28;20525;-66
2022/07/01 02:20:48;;;;;;;22.25;18.70;;;15.00;99.90;;;;;;5094765;28;20020;-66
2022/07/01 02:23:14;;;;;;;24.60;19.90;;;14.90;99.90;;;;;;5094788;28;20153;-67
2022/07/01 02:25:40;;;;;;;28.77;20.65;;;14.90;99.90;;;;;;5096127;28;20529;-66
2022/07/01 02:28:05;;;;;;;29.83;22.70;;;14.90;99.90;;;;;;5096097;28;20103;-66
2022/07/01 02:30:35;;;;;;;35.03;22.73;;;14.90;99.90;;;;;;5095847;28;20024;-67
2022/07/01 02:33:00;;;;;;;30.60;22.52;;;15.00;99.90;;;;;;5096027;28;20497;-66
2022/07/01 02:35:26;;;;;;;29.92;22.92;;;15.00;99.90;;;;;;5095841;28;20028;-67
2022/07/01 02:37:52;;;;;;;35.25;25.63;;;15.00;99.90;;;;;;5095558;28;20020;-66
2022/07/01 02:40:17;;;;;;;36.63;26.42;;;15.00;99.90;;;;;;5095688;28;20497;-67
2022/07/01 02:42:43;;;;;;;40.65;27.92;;;14.90;99.90;;;;;;5095539;28;20077;-66
2022/07/01 02:45:08;;;;;;;37.38;27.02;;;14.90;99.90;;;;;;5095681;28;20020;-67
2022/07/01 02:47:35;;;;;;;42.80;27.20;;;14.90;99.90;;;;;;5095258;28;20047;-67
2022/07/01 02:50:03;;;;;;;42.15;28.65;;;14.90;99.90;;;;;;5095329;28;20020;-67
2022/07/01 02:52:29;;;;;;;43.45;28.38;;;14.90;99.90;;;;;;5094032;28;20028;-67
2022/07/01 02:54:55;;;;;;;42.67;29.08;;;14.90;99.90;;;;;;5095236;28;20432;-67
2022/07/01 02:57:21;;;;;;;41.20;29.13;;;14.90;99.90;;;;;;5094044;28;20379;-67
2022/07/01 02:59:46;;;;;;;46.60;29.02;;;14.90;99.90;;;;;;5095386;28;20433;-66
2022/07/01 03:02:12;;;;;;;46.28;29.38;;;14.90;99.90;;;;;;5095354;28;20052;-67
2022/07/01 03:04:38;;;;;;;46.15;29.27;;;14.90;99.90;;;;;;5077004;28;20024;-67
2022/07/01 03:07:03;;;;;;;48.75;29.38;;;14.80;99.90;;;;;;5095043;28;20111;-67
2022/07/01 03:09:29;;;;;;;44.03;29.25;;;14.80;99.90;;;;;;5094928;28;20032;-67
2022/07/01 03:11:55;;;;;;;46.75;30.50;;;14.80;99.90;;;;;;5094931;28;20066;-67
2022/07/01 03:14:20;;;;;;;50.92;31.10;;;14.80;99.90;;;;;;5095186;28;20028;-67
2022/07/01 03:16:47;;;;;;;50.28;30.58;;;14.80;99.90;;;;;;5094702;28;20464;-67
2022/07/01 03:19:13;;;;;;;48.10;31.90;;;14.80;99.90;;;;;;5095009;28;20027;-67
2022/07/01 03:21:40;;;;;;;49.15;31.75;;;14.80;99.90;;;;;;5094660;28;20383;-67
2022/07/01 03:24:06;;;;;;;56.58;34.75;;;14.80;99.90;;;;;;5094626;28;20024;-67
2022/07/01 03:26:31;;;;;;;60.75;37.78;;;14.80;99.90;;;;;;5094582;28;20027;-67
2022/07/01 03:28:57;;;;;;;59.58;35.67;;;14.70;99.90;;;;;;5094793;28;20051;-66
2022/07/01 03:31:23;;;;;;;61.10;36.38;;;14.70;99.90;;;;;;5094800;28;20442;-67
2022/07/01 03:33:48;;;;;;;65.20;37.40;;;14.70;99.90;;;;;;5094621;28;20024;-66
2022/07/01 03:36:14;;;;;;;60.85;37.10;;;14.70;99.90;;;;;;5094687;28;20028;-66
2022/07/01 03:38:39;;;;;;;64.50;37.20;;;14.70;99.90;;;;;;5094341;28;20535;-66
2022/07/01 03:41:05;;;;;;;60.25;35.67;;;14.60;99.90;;;;;;5094639;28;20039;-66
2022/07/01 03:43:31;;;;;;;57.90;35.88;;;14.60;99.90;;;;;;5094346;28;20108;-66
2022/07/01 03:45:56;;;;;;;60.40;35.42;;;14.60;99.90;;;;;;5094071;28;20025;-66
2022/07/01 03:48:22;;;;;;;57.20;35.67;;;14.50;99.90;;;;;;5094307;28;20085;-66
2022/07/01 03:50:47;;;;;;;60.78;35.60;;;14.50;99.90;;;;;;5094154;28;20024;-66
2022/07/01 03:55:59;;;;;;;64.45;36.38;;;14.50;99.90;;;;;;5093874;28;20032;-67
2022/07/01 03:58:24;;;;;;;63.47;35.67;;;14.50;99.90;;;;;;5094028;28;20042;-67
2022/07/01 04:00:50;;;;;;;59.53;36.38;;;14.70;99.90;;;;;;5094091;28;20030;-67
2022/07/01 04:03:15;;;;;;;58.30;35.33;;;14.60;99.90;;;;;;5094162;28;20477;-67
2022/07/01 04:05:41;;;;;;;58.58;34.47;;;14.60;99.90;;;;;;5093883;28;20024;-67
2022/07/01 04:08:08;;;;;;;62.65;35.80;;;14.50;99.90;;;;;;5093838;28;20101;-67
2022/07/01 04:10:35;;;;;;;45.25;30.08;;;14.60;99.90;;;;;;5093865;28;20051;-67
2022/07/01 04:13:01;;;;;;;47.72;29.88;;;14.40;99.90;;;;;;5092670;28;20078;-67
2022/07/01 04:15:27;;;;;;;50.28;30.40;;;14.40;99.90;;;;;;5094004;28;20393;-66
2022/07/01 04:17:53;;;;;;;43.63;29.63;;;14.40;99.90;;;;;;5092087;28;20112;-67
2022/07/01 04:20:19;;;;;;;44.90;29.98;;;14.40;99.90;;;;;;5075691;28;20046;-67
2022/07/01 04:22:44;;;;;;;45.92;30.30;;;14.40;99.90;;;;;;5093623;28;20028;-66
2022/07/01 04:25:10;;;;;;;43.17;30.13;;;14.40;99.90;;;;;;5093597;28;20016;-67
2022/07/01 04:27:35;;;;;;;39.63;27.75;;;14.40;99.90;;;;;;5093791;28;20028;-67
2022/07/01 04:30:02;;;;;;;40.20;27.63;;;14.40;99.90;;;;;;5093603;28;20024;-67
2022/07/01 04:32:28;;;;;;;45.03;28.60;;;14.30;99.90;;;;;;5093725;28;20039;-68
2022/07/01 04:34:54;;;;;;;43.10;28.60;;;14.40;99.90;;;;;;5092331;28;20028;-66
2022/07/01 04:37:19;;;;;;;45.90;28.80;;;14.40;99.90;;;;;;5093602;28;20381;-67
2022/07/01 04:39:45;;;;;;;42.30;29.02;;;14.50;99.90;;;;;;5092165;28;20024;-66
2022/07/01 04:42:11;;;;;;;42.05;28.75;;;14.40;99.90;;;;;;5093370;28;20032;-67
2022/07/01 04:44:37;;;;;;;39.25;27.23;;;14.40;99.90;;;;;;5093367;28;20099;-67
2022/07/01 04:47:04;;;;;;;42.15;27.65;;;14.50;99.90;;;;;;5093234;28;20044;-66
2022/07/01 04:49:30;;;;;;;35.55;26.38;;;14.40;99.90;;;;;;5093544;28;20493;-67
2022/07/01 04:51:57;;;;;;;34.75;25.35;;;14.40;99.90;;;;;;5093497;28;20055;-67
2022/07/01 04:54:25;;;;;;;37.47;27.08;;;14.30;99.90;;;;;;5091987;28;20398;-66
2022/07/01 04:56:52;;;;;;;36.92;26.25;;;14.30;99.90;;;;;;5093406;28;20025;-67
2022/07/01 04:59:19;;;;;;;37.40;25.13;;;14.30;99.90;;;;;;5093091;28;20064;-67
2022/07/01 05:01:48;;;;;;;40.08;26.05;;;14.30;99.90;;;;;;5093202;28;20028;-67
2022/07/01 05:04:14;;;;;;;33.03;23.73;;;14.40;99.90;;;;;;5093192;28;20025;-67
2022/07/01 05:06:40;;;;;;;33.40;24.77;;;14.50;99.90;;;;;;5093112;28;20382;-67
2022/07/01 05:09:06;;;;;;;37.50;24.75;;;14.40;99.90;;;;;;5092870;28;20021;-67
2022/07/01 05:11:31;;;;;;;34.78;24.95;;;14.40;99.90;;;;;;5093338;28;20024;-66
2022/07/01 05:13:57;;;;;;;34.75;24.48;;;14.40;99.90;;;;;;5092091;28;20462;-66
2022/07/01 05:16:23;;;;;;;34.30;24.25;;;14.40;99.90;;;;;;5091879;28;20470;-66
2022/07/01 05:22:05;;;;;;;35.92;24.58;;;14.30;99.90;;;;;;5091869;28;20024;-64
2022/07/01 05:24:19;;;;;;;35.03;24.42;;;14.30;99.90;;;;;;5092863;28;20425;-64
2022/07/01 05:26:45;;;;;;;37.92;25.90;;;14.40;99.90;;;;;;5092933;28;20085;-65
2022/07/01 05:29:11;;;;;;;36.70;25.13;;;14.40;99.90;;;;;;5092272;28;20028;-64
2022/07/01 05:31:36;;;;;;;33.97;23.58;;;14.40;99.90;;;;;;5096802;28;20020;-64
2022/07/01 05:34:02;;;;;;;38.75;24.27;;;14.50;99.90;;;;;;5096911;28;20034;-64
2022/07/01 05:36:28;;;;;;;34.75;23.83;;;14.50;99.90;;;;;;5096977;28;20031;-64
2022/07/01 05:38:53;;;;;;;34.42;23.42;;;14.60;99.90;;;;;;5096903;28;20027;-65
2022/07/01 05:41:19;;;;;;;35.55;23.88;;;14.60;99.90;;;;;;5096671;28;20024;-64
2022/07/01 05:43:45;;;;;;;36.38;23.65;;;14.60;99.90;;;;;;5096597;28;20028;-64
2022/07/01 05:46:11;;;;;;;37.22;24.80;;;14.70;99.90;;;;;;5078314;28;20024;-64
2022/07/01 05:48:37;;;;;;;34.40;24.58;;;14.80;99.90;;;;;;5096504;28;20039;-64
2022/07/01 05:51:03;;;;;;;35.15;25.00;;;15.00;99.90;;;;;;5095566;28;20024;-64
2022/07/01 05:53:29;;;;;;;33.03;23.25;;;15.00;99.90;;;;;;5096464;28;20027;-64
2022/07/01 05:55:54;;;;;;;32.47;22.63;;;15.20;99.90;;;;;;5096446;28;20149;-64
2022/07/01 05:58:20;;;;;;;31.27;23.15;;;15.30;99.90;;;;;;5096428;28;20360;-65
2022/07/01 06:00:46;;;;;;;32.78;23.00;;;15.30;99.90;;;;;;5096294;28;20051;-65
2022/07/01 06:03:13;;;;;;;33.42;24.38;;;15.30;99.90;;;;;;5096334;28;20343;-65
2022/07/01 06:05:40;;;;;;;34.63;24.42;;;15.30;99.90;;;;;;5092750;28;20035;-65
2022/07/01 06:08:07;;;;;;;31.90;23.80;;;15.30;99.90;;;;;;5095920;28;20526;-66
2022/07/01 06:10:34;;;;;;;31.73;24.33;;;15.30;99.90;;;;;;5099212;28;20020;-65
2022/07/01 06:12:59;;;;;;;35.33;24.65;;;15.30;99.90;;;;;;5109768;28;20024;-66
2022/07/01 06:15:25;;;;;;;30.88;23.42;;;15.40;99.90;;;;;;5096171;28;20061;-65
2022/07/01 06:17:51;;;;;;;33.42;24.95;;;15.30;99.90;;;;;;5094733;28;20032;-64
2022/07/01 06:20:18;;;;;;;32.38;25.70;;;15.20;99.90;;;;;;5090068;28;20386;-64
2022/07/01 06:22:43;;;;;;;36.42;25.00;;;15.20;99.90;;;;;;5092541;28;20025;-64
2022/07/01 06:25:09;;;;;;;31.83;23.35;;;15.20;99.90;;;;;;5086884;28;20493;-65
2022/07/01 06:27:40;;;;;;;30.23;23.98;;;15.20;99.90;;;;;;5095939;28;20023;-64
2022/07/01 06:30:07;;;;;;;32.70;25.52;;;15.10;99.90;;;;;;5076474;28;20031;-65
2022/07/01 06:32:32;;;;;;;33.00;26.10;;;15.20;99.90;;;;;;5097303;28;20102;-64
2022/07/01 06:34:58;;;;;;;31.90;25.02;;;15.40;99.90;;;;;;5095372;28;20543;-65
2022/07/01 06:37:23;;;;;;;33.58;25.77;;;15.40;99.90;;;;;;5095725;28;20028;-65
2022/07/01 06:39:49;;;;;;;34.03;24.73;;;15.50;99.90;;;;;;5094399;28;20020;-65
2022/07/01 06:42:15;;;;;;;33.33;23.73;;;15.60;99.90;;;;;;5095076;28;20505;-65
2022/07/01 06:44:40;;;;;;;34.38;24.63;;;15.70;99.90;;;;;;5093790;28;20077;-65
2022/07/01 06:47:06;;;;;;;37.97;25.52;;;15.80;99.90;;;;;;5062581;28;20047;-65
2022/07/01 06:49:32;;;;;;;32.10;24.55;;;15.70;99.90;;;;;;5094919;28;20064;-65
2022/07/01 06:51:57;;;;;;;31.73;25.63;;;15.70;99.90;;;;;;5094323;28;20095;-64
2022/07/01 06:54:23;;;;;;;31.77;25.60;;;15.50;99.90;;;;;;5091238;28;20035;-64
2022/07/01 06:56:48;;;;;;;35.85;25.15;;;15.40;99.90;;;;;;5086239;28;20073;-65
2022/07/01 06:59:15;;;;;;;35.63;24.90;;;15.30;99.90;;;;;;5096472;28;20043;-64
2022/07/01 07:01:41;;;;;;;38.22;27.52;;;15.30;99.90;;;;;;5094746;28;20478;-64
2022/07/01 07:04:06;;;;;;;36.28;26.00;;;15.30;99.90;;;;;;5096295;28;20039;-64
2022/07/01 07:06:32;;;;;;;34.35;25.50;;;15.30;99.90;;;;;;5095435;28;20493;-64
2022/07/01 07:08:58;;;;;;;34.05;26.80;;;15.40;99.90;;;;;;5093695;28;20069;-64
2022/07/01 07:11:23;;;;;;;34.92;27.20;;;15.50;99.90;;;;;;5093849;28;20024;-64
2022/07/01 07:13:49;;;;;;;36.63;28.20;;;15.60;99.90;;;;;;5094770;28;20035;-64
2022/07/01 07:16:14;;;;;;;36.15;26.73;;;15.50;99.90;;;;;;5094320;28;20069;-64
2022/07/01 07:18:40;;;;;;;37.70;26.60;;;15.50;99.90;;;;;;5094357;28;20028;-65
2022/07/01 07:21:06;;;;;;;36.20;27.65;;;15.60;99.90;;;;;;5094444;28;20024;-65
2022/07/01 07:23:32;;;;;;;31.90;23.35;;;15.70;99.90;;;;;;5094094;28;20032;-65
2022/07/01 07:25:57;;;;;;;28.92;23.50;;;15.60;99.90;;;;;;5094164;28;20023;-65
2022/07/01 07:28:23;;;;;;;27.80;20.30;;;15.60;99.90;;;;;;5093047;28;20103;-64
2022/07/01 07:30:48;;;;;;;30.65;20.85;;;15.60;99.90;;;;;;5094207;28;20032;-64
2022/07/01 07:33:14;;;;;;;23.40;19.08;;;15.60;99.90;;;;;;5101454;28;20051;-65
2022/07/01 07:35:40;;;;;;;25.10;18.67;;;15.80;99.90;;;;;;5094507;28;20501;-64
2022/07/01 07:38:07;;;;;;;20.77;16.75;;;15.80;99.90;;;;;;5093155;28;20023;-65
2022/07/01 07:40:33;;;;;;;26.70;17.48;;;16.10;99.90;;;;;;5103793;28;20032;-65
2022/07/01 07:42:59;;;;;;;22.20;16.90;;;16.30;99.90;;;;;;5099125;28;20023;-65
2022/07/01 07:45:25;;;;;;;21.00;16.20;;;16.30;99.90;;;;;;5100810;28;20032;-65
2022/07/01 07:47:54;;;;;;;18.42;14.13;;;16.60;99.90;;;;;;5093410;28;20040;-64
2022/07/01 07:50:20;;;;;;;15.23;13.63;;;17.10;99.90;;;;;;5083112;28;20039;-65
2022/07/01 07:52:46;;;;;;;20.20;12.43;;;17.70;99.90;;;;;;5089699;28;20115;-65
2022/07/01 07:55:12;;;;;;;16.15;12.88;;;18.20;99.90;;;;;;5096204;28;20141;-64
2022/07/01 07:57:39;;;;;;;21.00;13.43;;;18.90;99.90;;;;;;5094691;28;20032;-65
2022/07/01 08:00:07;;;;;;;17.25;13.57;;;18.80;99.90;;;;;;5092305;28;20493;-65
2022/07/01 08:02:32;;;;;;;15.30;13.10;;;18.60;99.90;;;;;;5092963;28;20462;-65
2022/07/01 08:04:58;;;;;;;19.67;15.18;;;18.00;99.90;;;;;;5094395;28;20027;-65
2022/07/01 08:07:24;;;;;;;20.65;15.80;;;17.70;99.90;;;;;;5097898;28;20028;-65
2022/07/01 08:09:50;;;;;;;18.10;15.63;;;17.50;99.90;;;;;;5093817;28;20032;-65
2022/07/01 08:12:16;;;;;;;21.33;16.15;;;17.80;99.90;;;;;;5093902;28;20058;-64
2022/07/01 08:14:42;;;;;;;19.88;15.80;;;17.80;99.90;;;;;;5093593;28;20039;-64
2022/07/01 08:17:07;;;;;;;17.98;15.52;;;17.70;99.90;;;;;;5092349;28;20024;-64
2022/07/01 08:19:33;;;;;;;18.40;14.95;;;17.80;99.90;;;;;;5093159;28;20427;-65
2022/07/01 08:21:59;;;;;;;21.95;14.43;;;18.20;99.90;;;;;;5093763;28;20035;-65
2022/07/01 08:24:24;;;;;;;17.90;15.20;;;18.20;99.90;;;;;;5093446;28;20390;-65
2022/07/01 08:27:00;;;;;;;17.67;15.80;;;18.00;99.90;;;;;;5093343;28;20157;-65
2022/07/01 08:29:26;;;;;;;16.45;14.70;;;18.00;99.90;;;;;;5093460;28;20031;-65
2022/07/01 08:31:51;;;;;;;15.68;13.07;;;18.20;99.90;;;;;;5092812;28;20028;-64
2022/07/01 08:34:17;;;;;;;17.52;14.55;;;17.90;99.90;;;;;;5092700;28;20103;-65
2022/07/01 08:36:42;;;;;;;15.68;13.73;;;17.40;99.90;;;;;;5093338;28;20028;-65
2022/07/01 08:39:08;;;;;;;14.30;12.85;;;17.20;99.90;;;;;;5093367;28;20031;-65
2022/07/01 08:41:33;;;;;;;15.10;12.90;;;17.10;99.90;;;;;;5092831;28;20024;-65
2022/07/01 08:44:00;;;;;;;15.55;12.63;;;17.10;99.90;;;;;;5075537;28;20029;-65
2022/07/01 08:46:27;;;;;;;16.50;12.38;;;17.30;99.90;;;;;;5071921;28;20036;-65
2022/07/01 08:48:53;;;;;;;16.33;12.13;;;17.10;99.90;;;;;;5098369;28;20086;-64
2022/07/01 08:51:19;;;;;;;13.02;11.07;;;17.10;99.90;;;;;;5093413;28;20027;-64
2022/07/01 08:53:44;;;;;;;15.50;12.18;;;17.00;99.90;;;;;;5092797;28;20455;-65
2022/07/01 08:56:41;;;;;;;13.63;12.25;;;17.10;99.90;;;;;;5093075;28;20063;-65
2022/07/01 08:58:56;;;;;;;13.93;12.40;;;17.10;99.90;;;;;;5091622;28;20036;-64
2022/07/01 09:01:24;;;;;;;14.77;12.07;;;17.40;99.90;;;;;;5095412;28;20046;-65
2022/07/01 09:03:53;;;;;;;13.27;10.70;;;17.60;99.90;;;;;;5093604;28;20451;-65
2022/07/01 09:06:21;;;;;;;13.40;12.10;;;17.60;99.90;;;;;;5097129;28;20032;-65
2022/07/01 09:08:47;;;;;;;12.77;10.90;;;17.50;99.90;;;;;;5095980;28;20103;-65
2022/07/01 09:11:22;;;;;;;11.73;10.43;;;18.10;99.90;;;;;;5097001;28;20431;-65
2022/07/01 09:14:09;;;;;;;14.15;10.73;;;18.30;99.90;;;;;;5094984;28;20028;-65
2022/07/01 09:16:53;;;;;;;13.23;10.25;;;18.30;99.90;;;;;;5094490;28;20478;-65
2022/07/01 09:19:20;;;;;;;13.70;11.25;;;18.20;99.90;;;;;;5096355;28;20020;-64
2022/07/01 09:21:50;;;;;;;14.27;11.43;;;18.20;99.90;;;;;;5096971;28;20513;-64
2022/07/01 09:24:35;;;;;;;14.40;11.68;;;18.40;99.90;;;;;;5095795;28;20028;-65
2022/07/01 09:27:06;;;;;;;14.98;10.32;;;18.50;99.90;;;;;;5094822;28;20026;-65
2022/07/01 09:29:34;;;;;;;16.23;11.43;;;18.60;99.90;;;;;;5095484;28;20161;-64
2022/07/01 09:32:02;;;;;;;16.25;12.43;;;18.40;99.90;;;;;;5096363;28;20371;-65
2022/07/01 09:34:34;;;;;;;17.95;12.40;;;18.40;99.90;;;;;;5096669;28;20032;-64
2022/07/01 09:37:00;;;;;;;13.67;11.60;;;18.80;99.90;;;;;;5095179;28;20024;-64
2022/07/01 09:39:25;;;;;;;14.05;11.40;;;18.70;99.90;;;;;;5097232;28;20069;-64
2022/07/01 09:41:56;;;;;;;11.32;10.23;;;18.40;99.90;;;;;;5095765;28;20024;-65
2022/07/01 09:44:22;;;;;;;14.77;11.43;;;18.40;99.90;;;;;;5096280;28;20024;-66
2022/07/01 09:46:56;;;;;;;15.65;11.50;;;18.20;99.90;;;;;;5095339;28;20275;-66
2022/07/01 09:49:23;;;;;;;15.68;11.15;;;18.10;99.90;;;;;;5112449;28;20047;-66
2022/07/01 09:51:50;;;;;;;14.48;11.70;;;18.20;99.90;;;;;;5091239;28;20482;-66
2022/07/01 09:54:16;;;;;;;14.27;11.57;;;18.00;99.90;;;;;;5075075;28;20528;-66
2022/07/01 09:56:42;;;;;;;12.52;10.95;;;18.00;99.90;;;;;;5095358;28;20024;-65
2022/07/01 09:59:08;;;;;;;10.93;9.82;;;18.00;99.90;;;;;;5095973;28;20028;-65
2022/07/01 10:01:35;;;;;;;12.23;9.60;;;18.10;99.90;;;;;;5095428;28;20489;-66
2022/07/01 10:04:03;;;;;;;11.63;10.02;;;18.00;99.90;;;;;;5093062;28;20494;-66
2022/07/01 10:07:00;;;;;;;11.93;9.80;;;18.20;99.90;;;;;;5095162;28;20371;-66
2022/07/01 10:09:38;;;;;;;14.25;9.55;;;18.40;99.90;;;;;;5093046;28;20425;-65
2022/07/01 10:12:44;;;;;;;11.45;9.40;;;18.80;99.90;;;;;;5091572;28;20153;-66
2022/07/01 10:15:15;;;;;;;10.23;9.20;;;18.50;99.90;;;;;;5096751;28;20021;-66
2022/07/01 10:17:44;;;;;;;14.82;9.43;;;18.60;99.90;;;;;;5090548;28;20031;-65
2022/07/01 10:20:16;;;;;;;10.23;9.15;;;18.80;99.90;;;;;;5085535;28;20024;-65
2022/07/01 10:22:43;;;;;;;10.43;9.27;;;19.50;99.90;;;;;;5098654;28;20009;-66
2022/07/01 10:25:28;;;;;;;10.63;9.63;;;19.70;99.90;;;;;;5099554;28;20104;-65
2022/07/01 10:28:19;;;;;;;11.82;9.60;;;19.20;99.90;;;;;;5084390;28;20509;-66
2022/07/01 10:31:05;;;;;;;9.95;9.05;;;19.10;99.90;;;;;;5091359;28;20135;-66
2022/07/01 10:33:43;;;;;;;9.32;8.40;;;20.30;99.90;;;;;;5095373;28;20031;-65
2022/07/01 10:36:17;;;;;;;14.35;9.25;;;20.60;99.90;;;;;;5094095;28;20054;-67
2022/07/01 10:39:10;;;;;;;11.65;9.30;;;21.00;99.90;;;;;;5080015;28;20028;-67
2022/07/01 10:41:41;;;;;;;10.00;9.00;;;20.90;99.90;;;;;;5094395;28;20028;-66
2022/07/01 10:44:12;;;;;;;10.73;8.93;;;21.20;99.90;;;;;;5088103;28;20059;-65
2022/07/01 10:46:44;;;;;;;10.98;9.02;;;21.40;99.90;;;;;;5093170;28;20048;-66
2022/07/01 10:49:13;;;;;;;8.80;7.45;;;22.80;99.90;;;;;;5093892;28;20028;-66
2022/07/01 10:51:58;;;;;;;9.40;7.45;;;22.70;99.90;;;;;;5095306;28;20035;-66
2022/07/01 10:57:22;;;;;;;8.75;7.10;;;22.70;99.90;;;;;;5111110;27;20392;-66
2022/07/01 11:00:01;;;;;;;9.32;7.30;;;22.50;99.90;;;;;;5110019;28;20088;-66
2022/07/01 11:02:29;;;;;;;13.70;8.02;;;21.80;99.90;;;;;;5111044;28;20468;-65
2022/07/01 11:05:16;;;;;;;10.75;7.93;;;21.10;99.90;;;;;;5110823;28;20393;-66
2022/07/01 11:07:45;;;;;;;12.07;8.05;;;20.70;99.90;;;;;;5109741;28;20114;-66
2022/07/01 11:10:12;;;;;;;8.43;7.53;;;20.40;99.90;;;;;;5109705;28;20028;-66
2022/07/01 11:12:39;;;;;;;8.98;8.10;;;19.90;99.90;;;;;;5110889;28;20024;-65
2022/07/01 11:15:06;;;;;;;10.27;8.00;;;19.60;99.90;;;;;;5110828;28;20023;-65
2022/07/01 11:17:32;;;;;;;9.45;8.45;;;19.50;99.90;;;;;;5110739;28;20107;-66
2022/07/01 11:19:58;;;;;;;11.05;8.40;;;19.20;99.90;;;;;;5110782;28;20103;-65
2022/07/01 11:22:29;;;;;;;12.65;8.23;;;19.00;99.90;;;;;;5110909;28;20024;-66
2022/07/01 11:24:58;;;;;;;11.73;8.20;;;19.20;99.90;;;;;;5110807;28;20067;-66
2022/07/01 11:27:24;;;;;;;10.20;8.68;;;19.30;99.90;;;;;;5110442;28;20094;-66
2022/07/01 11:29:55;;;;;;;8.93;7.70;;;19.40;99.90;;;;;;5110714;28;20463;-66
2022/07/01 11:32:31;;;;;;;8.48;7.10;;;19.40;99.90;;;;;;5110363;28;20012;-66
2022/07/01 11:34:59;;;;;;;7.80;6.88;;;19.70;99.90;;;;;;5110302;28;20129;-66
2022/07/01 11:40:17;;;;;;;8.70;7.90;;;20.20;99.90;;;;;;5110089;28;20099;-66
2022/07/01 11:42:44;;;;;;;12.95;7.35;;;20.30;99.90;;;;;;5110456;28;20024;-66
2022/07/01 11:45:23;;;;;;;8.82;6.38;;;20.40;99.90;;;;;;5110384;28;20028;-66
2022/07/01 11:47:49;;;;;;;10.70;6.65;;;20.40;99.90;;;;;;5110368;28;20016;-66
2022/07/01 11:50:18;;;;;;;6.93;5.60;;;20.50;99.90;;;;;;5110174;28;20042;-66
2022/07/01 11:52:43;;;;;;;11.85;5.85;;;20.50;99.90;;;;;;5108829;28;20028;-65
2022/07/01 11:55:09;;;;;;;9.35;5.50;;;20.90;99.90;;;;;;5109731;28;20378;-64
2022/07/01 11:57:34;;;;;;;6.93;5.40;;;21.20;99.90;;;;;;5110188;28;20016;-64
2022/07/01 12:00:11;;;;;;;9.80;6.15;;;21.70;99.90;;;;;;5110136;28;20456;-65
2022/07/01 12:02:36;;;;;;;9.40;5.60;;;21.60;99.90;;;;;;5109842;28;20367;-64
2022/07/01 12:05:03;;;;;;;6.18;5.00;;;21.60;99.90;;;;;;5109910;28;20034;-64
2022/07/01 12:07:29;;;;;;;7.40;4.82;;;21.50;99.90;;;;;;5102990;28;20059;-65
2022/07/01 12:09:55;;;;;;;7.80;4.13;;;21.60;99.90;;;;;;5096315;28;20024;-65
2022/07/01 12:12:25;;;;;;;7.50;4.45;;;21.80;99.90;;;;;;5096264;28;20024;-64
2022/07/01 12:14:54;;;;;;;7.40;4.80;;;22.00;99.90;;;;;;5096193;28;20017;-65
2022/07/01 12:17:21;;;;;;;6.32;5.15;;;21.40;99.90;;;;;;5095932;28;20134;-65
2022/07/01 12:19:47;;;;;;;7.03;4.35;;;21.20;99.90;;;;;;5095879;28;20041;-65
2022/07/01 12:22:18;;;;;;;7.38;4.20;;;21.20;99.90;;;;;;5096073;28;20051;-64
2022/07/01 12:24:43;;;;;;;5.60;4.13;;;21.00;99.90;;;;;;5095900;28;20024;-65
2022/07/01 12:27:09;;;;;;;4.90;4.40;;;20.80;99.90;;;;;;5096022;28;20031;-64
2022/07/01 12:29:49;;;;;;;10.40;4.60;;;20.60;99.90;;;;;;5096022;28;20036;-64
2022/07/01 12:32:18;;;;;;;4.68;3.60;;;20.70;99.90;;;;;;5095995;28;20111;-65
2022/07/01 12:37:28;;;;;;;5.43;4.05;;;21.00;99.90;;;;;;5070555;28;20379;-65
2022/07/01 12:40:00;;;;;;;5.13;3.00;;;21.90;99.90;;;;;;5070764;28;20029;-66
2022/07/01 12:42:45;;;;;;;5.55;3.53;;;22.10;99.90;;;;;;5070490;28;20017;-66
2022/07/01 12:45:13;;;;;;;4.13;2.65;;;22.30;99.90;;;;;;5069058;28;20024;-66
2022/07/01 12:47:42;;;;;;;5.28;3.00;;;21.80;99.90;;;;;;5070582;28;20116;-66